createdAt,value
2022-10-25T00:00:23.553Z,7.20
2022-10-25T00:01:29.172Z,7.90
2022-10-25T00:02:34.413Z,7.63
2022-10-25T00:03:37.265Z,7.93
2022-10-25T00:04:40.052Z,7.30
2022-10-25T00:05:42.944Z,7.80
2022-10-25T00:06:45.567Z,7.53
2022-10-25T00:07:48.168Z,7.22
2022-10-25T00:08:50.828Z,7.35
2022-10-25T00:09:53.327Z,8.32
2022-10-25T00:10:55.722Z,8.20
2022-10-25T00:11:58.168Z,7.45
2022-10-25T00:13:01.147Z,8.07
2022-10-25T00:14:06.738Z,7.40
2022-10-25T00:15:09.857Z,7.85
2022-10-25T00:16:16.717Z,7.53
2022-10-25T00:17:19.290Z,7.13
2022-10-25T00:18:21.702Z,7.35
2022-10-25T00:19:24.258Z,7.82
2022-10-25T00:20:26.902Z,8.23
2022-10-25T00:21:29.369Z,7.95
2022-10-25T00:22:31.861Z,7.72
2022-10-25T00:23:34.531Z,8.23
2022-10-25T00:24:37.036Z,7.97
2022-10-25T00:25:39.755Z,9.65
2022-10-25T00:26:42.498Z,8.02
2022-10-25T00:27:45.037Z,7.15
2022-10-25T00:28:47.621Z,8.32
2022-10-25T00:29:50.092Z,7.05
2022-10-25T00:31:03.420Z,8.27
2022-10-25T00:32:05.997Z,7.95
2022-10-25T00:33:08.522Z,6.93
2022-10-25T00:34:11.045Z,7.32
2022-10-25T00:35:13.444Z,7.63
2022-10-25T00:36:18.388Z,9.63
2022-10-25T00:37:20.909Z,8.60
2022-10-25T00:38:23.663Z,8.63
2022-10-25T00:39:26.663Z,7.82
2022-10-25T00:40:29.257Z,7.25
2022-10-25T00:41:33.618Z,7.35
2022-10-25T00:42:36.076Z,7.05
2022-10-25T00:43:38.456Z,7.13
2022-10-25T00:44:40.950Z,7.50
2022-10-25T00:45:43.641Z,7.00
2022-10-25T00:46:46.294Z,7.00
2022-10-25T00:47:57.812Z,6.93
2022-10-25T00:49:04.049Z,7.50
2022-10-25T00:50:30.652Z,6.72
2022-10-25T00:51:42.940Z,7.43
2022-10-25T00:52:47.530Z,7.28
2022-10-25T00:53:50.176Z,7.10
2022-10-25T00:54:54.003Z,6.75
2022-10-25T00:56:03.291Z,6.47
2022-10-25T00:57:12.720Z,6.95
2022-10-25T00:58:19.753Z,6.82
2022-10-25T00:59:25.131Z,6.20
2022-10-25T01:00:27.653Z,6.15
2022-10-25T01:01:30.406Z,6.70
2022-10-25T01:02:33.386Z,6.47
2022-10-25T01:03:37.552Z,5.18
2022-10-25T01:04:40.459Z,4.80
2022-10-25T01:05:43.847Z,5.07
2022-10-25T01:06:47.969Z,5.50
2022-10-25T01:07:51.049Z,5.10
2022-10-25T01:08:54.672Z,4.45
2022-10-25T01:09:57.587Z,4.45
2022-10-25T01:11:00.398Z,5.75
2022-10-25T01:12:03.065Z,4.97
2022-10-25T01:13:05.868Z,5.55
2022-10-25T01:14:10.585Z,4.82
2022-10-25T01:15:13.211Z,5.03
2022-10-25T01:16:29.979Z,4.95
2022-10-25T01:17:52.356Z,5.82
2022-10-25T01:19:06.177Z,5.25
2022-10-25T01:20:30.562Z,4.85
2022-10-25T01:22:07.090Z,5.10
2022-10-25T01:23:38.426Z,4.70
2022-10-25T01:25:04.411Z,4.10
2022-10-25T01:26:27.558Z,4.30
2022-10-25T01:27:44.862Z,5.68
2022-10-25T01:29:28.160Z,4.80
2022-10-25T01:31:27.312Z,4.82
2022-10-25T01:32:38.745Z,5.13
2022-10-25T01:34:07.786Z,5.13
2022-10-25T01:35:31.589Z,5.28
2022-10-25T01:36:42.652Z,5.65
2022-10-25T01:37:50.922Z,5.60
2022-10-25T01:39:06.392Z,5.57
2022-10-25T01:40:24.699Z,5.25
2022-10-25T01:41:50.350Z,5.00
2022-10-25T01:43:29.986Z,5.85
2022-10-25T01:44:56.139Z,4.60
2022-10-25T01:46:11.201Z,5.00
2022-10-25T01:47:20.749Z,4.85
2022-10-25T01:48:37.033Z,6.03
2022-10-25T01:49:51.243Z,5.78
2022-10-25T01:50:53.878Z,6.53
2022-10-25T01:51:56.632Z,6.40
2022-10-25T01:52:59.244Z,6.07
2022-10-25T01:54:01.869Z,6.25
2022-10-25T01:55:07.321Z,4.90
2022-10-25T01:56:09.707Z,5.25
2022-10-25T01:57:18.023Z,4.85
2022-10-25T01:59:02.968Z,5.82
2022-10-25T02:00:08.350Z,4.97
2022-10-25T02:01:38.295Z,5.20
2022-10-25T02:03:01.102Z,5.97
2022-10-25T02:04:18.759Z,5.45
2022-10-25T02:05:38.935Z,5.28
2022-10-25T02:07:18.888Z,5.03
2022-10-25T02:08:41.312Z,5.55
2022-10-25T02:10:10.187Z,5.53
2022-10-25T02:11:31.984Z,5.03
2022-10-25T02:12:42.475Z,5.28
2022-10-25T02:14:27.707Z,4.55
2022-10-25T02:16:02.460Z,4.70
2022-10-25T02:17:19.991Z,5.47
2022-10-25T02:18:25.222Z,5.20
2022-10-25T02:19:34.207Z,5.68
2022-10-25T02:20:37.091Z,5.32
2022-10-25T02:21:40.720Z,5.22
2022-10-25T02:22:43.443Z,5.90
2022-10-25T02:23:46.488Z,5.18
2022-10-25T02:24:50.798Z,5.20
2022-10-25T02:25:54.022Z,4.68
2022-10-25T02:26:57.293Z,4.72
2022-10-25T02:28:02.313Z,4.68
2022-10-25T02:29:06.305Z,4.07
2022-10-25T02:30:09.248Z,4.65
2022-10-25T02:31:15.938Z,4.70
2022-10-25T02:32:18.458Z,4.93
2022-10-25T02:33:21.186Z,5.95
2022-10-25T02:34:23.808Z,5.07
2022-10-25T02:35:26.530Z,6.38
2022-10-25T02:36:29.616Z,5.75
2022-10-25T02:37:33.057Z,5.40
2022-10-25T02:38:35.701Z,5.47
2022-10-25T02:39:38.420Z,5.40
2022-10-25T02:40:40.872Z,5.28
2022-10-25T02:41:43.430Z,4.90
2022-10-25T02:42:46.130Z,5.47
2022-10-25T02:43:48.772Z,5.40
2022-10-25T02:44:51.218Z,5.20
2022-10-25T02:45:53.611Z,5.60
2022-10-25T02:46:56.234Z,4.65
2022-10-25T02:47:58.832Z,5.55
2022-10-25T02:49:01.223Z,4.72
2022-10-25T02:50:04.711Z,5.60
2022-10-25T02:51:08.102Z,4.55
2022-10-25T02:52:10.707Z,5.80
2022-10-25T02:53:13.146Z,4.82
2022-10-25T02:54:17.836Z,4.70
2022-10-25T02:55:20.477Z,4.90
2022-10-25T02:56:23.804Z,5.22
2022-10-25T02:57:26.427Z,5.57
2022-10-25T02:58:34.805Z,5.32
2022-10-25T02:59:37.305Z,5.13
2022-10-25T03:00:39.924Z,5.22
2022-10-25T03:01:42.504Z,5.05
2022-10-25T03:02:45.111Z,5.60
2022-10-25T03:03:48.231Z,5.10
2022-10-25T03:04:50.782Z,6.07
2022-10-25T03:05:53.616Z,5.85
2022-10-25T03:06:57.610Z,5.18
2022-10-25T03:08:00.153Z,5.35
2022-10-25T03:09:02.877Z,5.22
2022-10-25T03:10:06.034Z,5.43
2022-10-25T03:11:10.165Z,6.05
2022-10-25T03:12:12.660Z,5.07
2022-10-25T03:13:15.639Z,5.20
2022-10-25T03:14:18.043Z,5.32
2022-10-25T03:15:20.855Z,5.45
2022-10-25T03:16:23.308Z,5.10
2022-10-25T03:17:25.839Z,6.00
2022-10-25T03:18:28.571Z,5.63
2022-10-25T03:19:31.248Z,5.55
2022-10-25T03:20:33.873Z,4.95
2022-10-25T03:21:38.678Z,5.10
2022-10-25T03:22:43.628Z,5.15
2022-10-25T03:23:46.121Z,5.45
2022-10-25T03:24:48.519Z,5.70
2022-10-25T03:25:55.147Z,5.70
2022-10-25T03:26:57.631Z,5.93
2022-10-25T03:28:02.917Z,6.20
2022-10-25T03:29:05.414Z,5.78
2022-10-25T03:30:08.260Z,5.50
2022-10-25T03:31:12.679Z,5.57
2022-10-25T03:32:15.047Z,6.25
2022-10-25T03:33:17.697Z,5.90
2022-10-25T03:34:20.420Z,6.13
2022-10-25T03:35:23.062Z,5.75
2022-10-25T03:36:25.500Z,5.32
2022-10-25T03:37:27.940Z,5.60
2022-10-25T03:38:30.509Z,5.22
2022-10-25T03:39:33.016Z,6.63
2022-10-25T03:40:36.273Z,5.65
2022-10-25T03:41:38.767Z,6.18
2022-10-25T03:42:41.628Z,6.15
2022-10-25T03:43:44.080Z,5.85
2022-10-25T03:44:46.684Z,7.38
2022-10-25T03:45:49.217Z,6.45
2022-10-25T03:46:51.673Z,5.78
2022-10-25T03:47:54.876Z,5.85
2022-10-25T03:48:57.387Z,6.07
2022-10-25T03:49:59.932Z,6.40
2022-10-25T03:51:02.443Z,5.40
2022-10-25T03:52:07.781Z,6.68
2022-10-25T03:53:10.539Z,6.50
2022-10-25T03:54:13.052Z,6.03
2022-10-25T03:55:15.505Z,6.18
2022-10-25T03:56:17.957Z,5.90
2022-10-25T03:57:20.508Z,6.40
2022-10-25T03:58:22.962Z,7.15
2022-10-25T03:59:25.559Z,6.22
2022-10-25T04:00:28.510Z,6.72
2022-10-25T04:01:31.351Z,6.82
2022-10-25T04:02:34.022Z,6.25
2022-10-25T04:03:36.969Z,6.53
2022-10-25T04:04:39.509Z,6.70
2022-10-25T04:05:42.255Z,6.20
2022-10-25T04:06:44.897Z,6.70
2022-10-25T04:07:47.907Z,6.90
2022-10-25T04:08:50.662Z,6.35
2022-10-25T04:09:53.156Z,6.65
2022-10-25T04:10:55.813Z,6.32
2022-10-25T04:11:58.309Z,7.40
2022-10-25T04:13:00.936Z,6.88
2022-10-25T04:14:03.439Z,6.68
2022-10-25T04:15:06.499Z,6.25
2022-10-25T04:16:09.745Z,6.00
2022-10-25T04:17:12.264Z,6.20
2022-10-25T04:18:14.741Z,7.07
2022-10-25T04:19:17.513Z,6.78
2022-10-25T04:20:20.438Z,6.70
2022-10-25T04:21:23.447Z,6.38
2022-10-25T04:22:25.993Z,6.25
2022-10-25T04:23:28.489Z,6.85
2022-10-25T04:24:31.190Z,6.10
2022-10-25T04:25:33.675Z,6.70
2022-10-25T04:26:36.841Z,6.13
2022-10-25T04:27:39.539Z,6.15
2022-10-25T04:28:42.028Z,7.10
2022-10-25T04:29:44.569Z,6.57
2022-10-25T04:30:47.094Z,7.78
2022-10-25T04:31:49.614Z,7.22
2022-10-25T04:32:52.554Z,6.82
2022-10-25T04:33:56.244Z,7.60
2022-10-25T04:34:58.676Z,6.18
2022-10-25T04:36:01.222Z,7.63
2022-10-25T04:37:04.060Z,7.55
2022-10-25T04:38:06.502Z,7.05
2022-10-25T04:39:09.168Z,6.63
2022-10-25T04:40:11.966Z,7.13
2022-10-25T04:41:14.468Z,7.03
2022-10-25T04:42:18.327Z,7.45
2022-10-25T04:43:20.882Z,6.68
2022-10-25T04:44:23.376Z,7.45
2022-10-25T04:45:25.941Z,7.10
2022-10-25T04:46:28.574Z,7.40
2022-10-25T04:47:32.751Z,7.50
2022-10-25T04:48:37.997Z,6.85
2022-10-25T04:49:40.550Z,6.30
2022-10-25T04:50:43.092Z,6.50
2022-10-25T04:51:45.833Z,6.50
2022-10-25T04:52:48.571Z,6.80
2022-10-25T04:53:54.080Z,6.68
2022-10-25T04:54:57.328Z,7.57
2022-10-25T04:56:12.190Z,7.72
2022-10-25T04:57:14.698Z,6.75
2022-10-25T04:58:17.420Z,7.18
2022-10-25T04:59:19.920Z,7.75
2022-10-25T05:00:22.570Z,7.50
2022-10-25T05:01:25.983Z,6.43
2022-10-25T05:02:28.565Z,7.25
2022-10-25T05:03:31.876Z,6.60
2022-10-25T05:04:34.447Z,7.00
2022-10-25T05:05:36.961Z,6.78
2022-10-25T05:06:39.532Z,7.07
2022-10-25T05:07:42.080Z,7.40
2022-10-25T05:08:46.943Z,7.38
2022-10-25T05:09:49.371Z,7.15
2022-10-25T05:10:55.213Z,7.30
2022-10-25T05:11:57.687Z,7.00
2022-10-25T05:13:00.186Z,7.43
2022-10-25T05:14:02.702Z,6.95
2022-10-25T05:15:06.639Z,6.60
2022-10-25T05:16:21.229Z,7.53
2022-10-25T05:17:23.723Z,6.65
2022-10-25T05:18:26.179Z,6.78
2022-10-25T05:19:29.016Z,7.45
2022-10-25T05:20:31.504Z,7.55
2022-10-25T05:21:35.418Z,6.68
2022-10-25T05:22:37.915Z,7.78
2022-10-25T05:23:40.720Z,6.93
2022-10-25T05:24:43.125Z,7.00
2022-10-25T05:25:45.584Z,6.72
2022-10-25T05:26:48.453Z,7.13
2022-10-25T05:27:50.949Z,7.45
2022-10-25T05:28:55.030Z,7.40
2022-10-25T05:29:57.450Z,8.00
2022-10-25T05:31:04.795Z,7.47
2022-10-25T05:32:07.387Z,7.95
2022-10-25T05:33:10.218Z,7.20
2022-10-25T05:34:12.809Z,7.28
2022-10-25T05:35:15.223Z,7.68
2022-10-25T05:36:17.863Z,7.80
2022-10-25T05:37:20.476Z,6.95
2022-10-25T05:38:22.942Z,7.95
2022-10-25T05:39:25.369Z,8.63
2022-10-25T05:40:28.493Z,7.22
2022-10-25T05:41:34.550Z,7.72
2022-10-25T05:42:39.942Z,7.28
2022-10-25T05:43:42.752Z,7.97
2022-10-25T05:44:45.432Z,6.90
2022-10-25T05:45:48.003Z,7.55
2022-10-25T05:46:51.915Z,6.97
2022-10-25T05:47:54.362Z,7.20
2022-10-25T05:48:58.852Z,7.55
2022-10-25T05:50:02.392Z,6.90
2022-10-25T05:51:28.981Z,7.00
2022-10-25T05:52:36.150Z,7.60
2022-10-25T05:53:43.467Z,6.38
2022-10-25T05:54:46.001Z,7.03
2022-10-25T05:55:48.449Z,6.57
2022-10-25T05:56:50.929Z,6.75
2022-10-25T05:57:53.428Z,7.45
2022-10-25T05:58:57.250Z,7.15
2022-10-25T06:00:00.141Z,7.05
2022-10-25T06:01:02.921Z,6.30
2022-10-25T06:02:06.076Z,7.38
2022-10-25T06:03:09.192Z,6.70
2022-10-25T06:04:12.331Z,7.30
2022-10-25T06:05:14.925Z,7.88
2022-10-25T06:06:17.765Z,6.82
2022-10-25T06:07:20.506Z,6.72
2022-10-25T06:08:22.970Z,7.13
2022-10-25T06:09:25.506Z,6.80
2022-10-25T06:10:28.143Z,6.95
2022-10-25T06:11:31.042Z,6.93
2022-10-25T06:12:33.620Z,7.07
2022-10-25T06:13:36.735Z,7.07
2022-10-25T06:14:39.380Z,6.38
2022-10-25T06:15:41.802Z,7.88
2022-10-25T06:16:44.340Z,7.18
2022-10-25T06:17:46.877Z,6.93
2022-10-25T06:18:49.395Z,6.55
2022-10-25T06:19:51.981Z,6.53
2022-10-25T06:20:54.566Z,7.25
2022-10-25T06:21:57.087Z,7.10
2022-10-25T06:22:59.614Z,7.22
2022-10-25T06:24:02.699Z,7.15
2022-10-25T06:25:05.740Z,7.22
2022-10-25T06:26:14.017Z,7.05
2022-10-25T06:27:16.459Z,7.03
2022-10-25T06:28:18.960Z,7.13
2022-10-25T06:29:21.407Z,8.13
2022-10-25T06:30:23.934Z,6.82
2022-10-25T06:31:26.705Z,7.40
2022-10-25T06:32:29.244Z,7.10
2022-10-25T06:33:32.052Z,7.57
2022-10-25T06:34:34.597Z,7.15
2022-10-25T06:35:37.260Z,7.57
2022-10-25T06:36:39.886Z,7.50
2022-10-25T06:37:42.373Z,6.97
2022-10-25T06:38:45.935Z,6.75
2022-10-25T06:39:48.435Z,6.82
2022-10-25T06:40:51.130Z,7.22
2022-10-25T06:41:53.552Z,6.72
2022-10-25T06:42:56.708Z,7.28
2022-10-25T06:44:05.372Z,6.97
2022-10-25T06:45:09.877Z,7.03
2022-10-25T06:46:22.554Z,7.63
2022-10-25T06:47:25.148Z,6.65
2022-10-25T06:48:27.628Z,6.65
2022-10-25T06:49:30.206Z,6.22
2022-10-25T06:50:32.851Z,6.13
2022-10-25T06:51:35.763Z,6.43
2022-10-25T06:52:38.802Z,6.82
2022-10-25T06:53:41.475Z,5.75
2022-10-25T06:54:43.935Z,6.90
2022-10-25T06:55:49.524Z,6.63
2022-10-25T06:56:51.919Z,6.43
2022-10-25T06:57:57.308Z,6.20
2022-10-25T06:59:00.257Z,6.47
2022-10-25T07:00:02.842Z,6.00
2022-10-25T07:01:12.367Z,5.93
2022-10-25T07:02:15.108Z,5.93
2022-10-25T07:03:17.851Z,6.32
2022-10-25T07:04:20.400Z,6.88
2022-10-25T07:05:22.976Z,5.97
2022-10-25T07:06:28.089Z,6.60
2022-10-25T07:07:30.652Z,6.35
2022-10-25T07:08:34.641Z,5.72
2022-10-25T07:09:37.279Z,6.15
2022-10-25T07:10:39.972Z,6.10
2022-10-25T07:11:42.365Z,6.63
2022-10-25T07:12:45.229Z,5.80
2022-10-25T07:13:47.724Z,6.22
2022-10-25T07:14:50.401Z,6.07
2022-10-25T07:15:53.022Z,6.18
2022-10-25T07:16:55.724Z,5.78
2022-10-25T07:17:58.243Z,6.20
2022-10-25T07:19:02.873Z,6.10
2022-10-25T07:20:05.916Z,6.38
2022-10-25T07:21:11.573Z,6.05
2022-10-25T07:22:13.997Z,6.03
2022-10-25T07:23:16.734Z,6.13
2022-10-25T07:24:19.318Z,5.95
2022-10-25T07:25:21.996Z,6.20
2022-10-25T07:26:27.457Z,5.97
2022-10-25T07:27:32.605Z,6.13
2022-10-25T07:28:35.185Z,5.85
2022-10-25T07:29:37.579Z,6.13
2022-10-25T07:30:45.382Z,5.47
2022-10-25T07:31:47.960Z,6.32
2022-10-25T07:32:50.473Z,6.05
2022-10-25T07:33:54.105Z,5.80
2022-10-25T07:36:09.862Z,5.47
2022-10-25T07:37:13.265Z,5.47
2022-10-25T07:38:16.320Z,5.72
2022-10-25T07:39:18.740Z,5.60
2022-10-25T07:40:21.331Z,5.45
2022-10-25T07:41:24.924Z,5.38
2022-10-25T07:42:27.630Z,5.25
2022-10-25T07:43:30.116Z,5.22
2022-10-25T07:44:32.631Z,4.97
2022-10-25T07:45:36.289Z,4.65
2022-10-25T07:46:38.701Z,5.00
2022-10-25T07:47:41.277Z,5.15
2022-10-25T07:48:43.974Z,5.40
2022-10-25T07:49:46.515Z,5.10
2022-10-25T07:50:49.432Z,5.10
2022-10-25T07:51:52.128Z,4.78
2022-10-25T07:52:57.511Z,4.28
2022-10-25T07:54:00.010Z,4.65
2022-10-25T07:55:02.615Z,4.60
2022-10-25T07:56:05.692Z,4.55
2022-10-25T07:57:08.188Z,4.22
2022-10-25T07:58:12.048Z,4.80
2022-10-25T07:59:14.524Z,4.60
2022-10-25T08:00:17.203Z,4.63
2022-10-25T08:01:25.665Z,4.28
2022-10-25T08:02:28.255Z,4.85
2022-10-25T08:03:31.426Z,4.68
2022-10-25T08:04:34.104Z,4.55
2022-10-25T08:05:36.557Z,3.83
2022-10-25T08:06:39.054Z,4.25
2022-10-25T08:07:41.498Z,3.72
2022-10-25T08:08:44.380Z,4.03
2022-10-25T08:09:46.829Z,3.88
2022-10-25T08:10:49.949Z,4.57
2022-10-25T08:11:52.459Z,4.15
2022-10-25T08:12:55.681Z,3.88
2022-10-25T08:13:58.164Z,4.03
2022-10-25T08:15:00.716Z,4.20
2022-10-25T08:16:03.566Z,4.00
2022-10-25T08:17:06.268Z,3.05
2022-10-25T08:18:09.765Z,3.72
2022-10-25T08:19:12.693Z,3.45
2022-10-25T08:20:15.429Z,4.10
2022-10-25T08:21:17.955Z,3.55
2022-10-25T08:22:20.387Z,3.70
2022-10-25T08:23:23.767Z,3.97
2022-10-25T08:24:26.531Z,3.70
2022-10-25T08:25:29.619Z,3.75
2022-10-25T08:26:36.620Z,3.95
2022-10-25T08:27:41.891Z,3.25
2022-10-25T08:28:45.001Z,3.90
2022-10-25T08:29:47.775Z,3.80
2022-10-25T08:30:50.405Z,3.88
2022-10-25T08:31:52.922Z,3.78
2022-10-25T08:32:58.590Z,4.55
2022-10-25T08:34:01.483Z,4.47
2022-10-25T08:35:04.443Z,4.13
2022-10-25T08:36:08.284Z,4.10
2022-10-25T08:37:12.376Z,4.70
2022-10-25T08:38:14.899Z,4.25
2022-10-25T08:39:17.686Z,4.10
2022-10-25T08:40:24.295Z,4.45
2022-10-25T08:41:54.449Z,4.68
2022-10-25T08:43:12.854Z,5.28
2022-10-25T08:44:33.948Z,5.20
2022-10-25T08:45:39.170Z,5.10
2022-10-25T08:47:09.295Z,5.05
2022-10-25T08:48:15.718Z,5.10
2022-10-25T08:49:44.407Z,5.22
2022-10-25T08:50:52.288Z,4.72
2022-10-25T08:51:55.413Z,5.30
2022-10-25T08:53:00.565Z,4.72
2022-10-25T08:54:07.924Z,4.60
2022-10-25T08:55:24.634Z,5.43
2022-10-25T08:56:27.584Z,5.20
2022-10-25T08:57:33.271Z,4.57
2022-10-25T08:58:37.723Z,5.05
2022-10-25T08:59:45.772Z,5.22
2022-10-25T09:00:49.364Z,5.15
2022-10-25T09:01:56.407Z,5.05
2022-10-25T09:03:00.508Z,5.20
2022-10-25T09:04:03.075Z,5.38
2022-10-25T09:05:19.701Z,5.25
2022-10-25T09:06:37.612Z,5.80
2022-10-25T09:07:58.700Z,5.10
2022-10-25T09:09:12.157Z,5.65
2022-10-25T09:10:35.637Z,5.18
2022-10-25T09:11:55.975Z,5.68
2022-10-25T09:13:11.055Z,4.80
2022-10-25T09:14:31.881Z,5.40
2022-10-25T09:15:49.533Z,5.90
2022-10-25T09:16:54.380Z,6.20
2022-10-25T09:17:57.023Z,5.45
2022-10-25T09:18:59.488Z,5.53
2022-10-25T09:20:02.000Z,5.30
2022-10-25T09:21:13.423Z,5.97
2022-10-25T09:22:25.916Z,4.97
2022-10-25T09:23:31.031Z,5.57
2022-10-25T09:24:36.520Z,5.15
2022-10-25T09:25:49.102Z,5.43
2022-10-25T09:27:07.637Z,5.78
2022-10-25T09:28:21.814Z,5.43
2022-10-25T09:29:31.227Z,5.40
2022-10-25T09:30:40.925Z,5.57
2022-10-25T09:31:49.197Z,5.28
2022-10-25T09:33:01.537Z,5.72
2022-10-25T09:34:06.536Z,6.03
2022-10-25T09:35:18.819Z,5.10
2022-10-25T09:36:22.076Z,5.65
2022-10-25T09:37:28.653Z,5.38
2022-10-25T09:38:40.433Z,5.35
2022-10-25T09:39:54.753Z,5.20
2022-10-25T09:41:03.542Z,5.95
2022-10-25T09:42:18.015Z,6.13
2022-10-25T09:43:26.138Z,5.28
2022-10-25T09:44:39.467Z,5.72
2022-10-25T09:45:48.561Z,4.68
2022-10-25T09:47:03.206Z,5.32
2022-10-25T09:48:21.072Z,5.38
2022-10-25T09:49:23.735Z,5.82
2022-10-25T09:50:43.658Z,5.97
2022-10-25T09:51:52.143Z,5.50
2022-10-25T09:53:16.683Z,6.20
2022-10-25T09:54:31.199Z,6.38
2022-10-25T09:55:55.267Z,5.00
2022-10-25T09:56:57.719Z,5.22
2022-10-25T09:58:00.578Z,6.03
2022-10-25T09:59:04.478Z,5.75
2022-10-25T10:00:07.617Z,6.53
2022-10-25T10:01:18.189Z,6.10
2022-10-25T10:02:25.239Z,5.95
2022-10-25T10:03:35.701Z,6.43
2022-10-25T10:04:38.824Z,6.10
2022-10-25T10:05:51.841Z,6.40
2022-10-25T10:06:58.170Z,6.43
2022-10-25T10:08:00.706Z,6.28
2022-10-25T10:09:06.504Z,6.50
2022-10-25T10:10:12.686Z,6.22
2022-10-25T10:11:17.979Z,5.45
2022-10-25T10:12:35.821Z,5.78
2022-10-25T10:13:45.320Z,6.00
2022-10-25T10:14:57.391Z,5.72
2022-10-25T10:16:06.562Z,6.03
2022-10-25T10:17:14.232Z,5.32
2022-10-25T10:18:20.179Z,6.03
2022-10-25T10:19:22.620Z,5.38
2022-10-25T10:20:25.941Z,5.68
2022-10-25T10:21:28.522Z,5.57
2022-10-25T10:22:31.204Z,5.00
2022-10-25T10:23:42.780Z,5.38
2022-10-25T10:24:48.334Z,5.55
2022-10-25T10:25:51.075Z,5.72
2022-10-25T10:26:57.277Z,5.60
2022-10-25T10:27:59.815Z,5.05
2022-10-25T10:29:08.948Z,5.90
2022-10-25T10:30:21.313Z,6.05
2022-10-25T10:31:23.818Z,5.50
2022-10-25T10:32:29.666Z,5.57
2022-10-25T10:33:33.726Z,5.80
2022-10-25T10:34:44.821Z,5.55
2022-10-25T10:35:47.650Z,5.47
2022-10-25T10:37:20.984Z,5.47
2022-10-25T10:38:28.101Z,6.28
2022-10-25T10:39:30.980Z,5.20
2022-10-25T10:40:33.669Z,5.70
2022-10-25T10:41:37.150Z,5.35
2022-10-25T10:42:43.351Z,5.72
2022-10-25T10:43:45.964Z,5.38
2022-10-25T10:45:09.378Z,5.75
2022-10-25T10:46:15.421Z,5.93
2022-10-25T10:47:20.701Z,5.88
2022-10-25T10:48:24.355Z,5.35
2022-10-25T10:49:35.444Z,6.25
2022-10-25T10:50:38.169Z,5.63
2022-10-25T10:51:44.899Z,6.15
2022-10-25T10:52:56.559Z,5.80
2022-10-25T10:54:22.533Z,5.18
2022-10-25T10:55:59.878Z,5.55
2022-10-25T10:57:04.419Z,5.68
2022-10-25T10:58:23.701Z,5.07
2022-10-25T10:59:36.913Z,5.57
2022-10-25T11:00:39.568Z,5.38
2022-10-25T11:01:42.585Z,5.28
2022-10-25T11:02:47.126Z,5.25
2022-10-25T11:04:00.433Z,5.00
2022-10-25T11:05:24.766Z,5.25
2022-10-25T11:06:34.355Z,4.78
2022-10-25T11:07:42.394Z,4.57
2022-10-25T11:08:47.431Z,4.78
2022-10-25T11:09:50.000Z,5.13
2022-10-25T11:10:52.607Z,5.18
2022-10-25T11:12:14.857Z,4.53
2022-10-25T11:13:19.401Z,4.18
2022-10-25T11:14:21.941Z,4.57
2022-10-25T11:15:24.546Z,4.63
2022-10-25T11:16:54.498Z,4.40
2022-10-25T11:18:00.892Z,4.70
2022-10-25T11:19:09.456Z,5.15
2022-10-25T11:20:33.311Z,5.43
2022-10-25T11:21:57.590Z,5.55
2022-10-25T11:23:13.698Z,5.43
2022-10-25T11:24:27.054Z,5.68
2022-10-25T11:25:47.364Z,5.65
2022-10-25T11:26:59.682Z,5.28
2022-10-25T11:28:36.375Z,4.95
2022-10-25T11:29:49.058Z,4.97
2022-10-25T11:30:57.194Z,5.60
2022-10-25T11:32:41.155Z,5.07
2022-10-25T11:34:07.766Z,4.63
2022-10-25T11:35:21.255Z,4.57
2022-10-25T11:36:38.966Z,4.07
2022-10-25T11:37:50.434Z,4.10
2022-10-25T11:39:23.483Z,4.25
2022-10-25T11:40:32.630Z,3.60
2022-10-25T11:41:41.058Z,4.07
2022-10-25T11:42:55.096Z,3.85
2022-10-25T11:44:22.316Z,4.20
2022-10-25T11:45:27.754Z,4.93
2022-10-25T11:46:55.496Z,3.92
2022-10-25T11:48:18.123Z,4.32
2022-10-25T11:49:39.679Z,4.70
2022-10-25T11:51:04.282Z,4.70
2022-10-25T11:52:17.103Z,4.57
2022-10-25T11:53:29.102Z,5.25
2022-10-25T11:54:53.564Z,4.30
2022-10-25T11:56:12.896Z,5.28
2022-10-25T11:57:38.386Z,4.40
2022-10-25T11:58:50.406Z,4.10
2022-10-25T12:00:02.294Z,4.38
2022-10-25T12:01:14.432Z,4.68
2022-10-25T12:02:38.906Z,4.82
2022-10-25T12:03:56.190Z,4.57
2022-10-25T12:05:03.888Z,4.80
2022-10-25T12:06:22.552Z,4.68
2022-10-25T12:07:36.806Z,4.85
2022-10-25T12:08:42.053Z,5.30
2022-10-25T12:10:09.384Z,5.05
2022-10-25T12:11:18.818Z,4.85
2022-10-25T12:12:27.133Z,4.70
2022-10-25T12:13:45.865Z,5.07
2022-10-25T12:14:52.621Z,5.68
2022-10-25T12:15:56.782Z,5.90
2022-10-25T12:17:01.263Z,6.20
2022-10-25T12:18:10.694Z,5.25
2022-10-25T12:19:22.954Z,5.03
2022-10-25T12:20:27.812Z,5.38
2022-10-25T12:21:41.577Z,5.05
2022-10-25T12:22:46.240Z,5.15
2022-10-25T12:23:51.269Z,4.72
2022-10-25T12:25:03.485Z,5.05
2022-10-25T12:26:10.765Z,5.07
2022-10-25T12:27:13.977Z,5.22
2022-10-25T12:28:19.713Z,5.10
2022-10-25T12:29:33.505Z,5.13
2022-10-25T12:30:36.121Z,4.50
2022-10-25T12:31:42.628Z,5.03
2022-10-25T12:32:54.759Z,5.10
2022-10-25T12:34:06.342Z,5.55
2022-10-25T12:35:25.157Z,5.35
2022-10-25T12:36:32.797Z,4.38
2022-10-25T12:37:38.791Z,4.72
2022-10-25T12:38:41.456Z,3.72
2022-10-25T12:39:44.915Z,4.90
2022-10-25T12:40:49.772Z,4.15
2022-10-25T12:41:59.142Z,4.57
2022-10-25T12:43:11.614Z,4.40
2022-10-25T12:44:16.974Z,3.85
2022-10-25T12:45:34.415Z,3.90
2022-10-25T12:47:07.746Z,3.63
2022-10-25T12:48:40.480Z,3.92
2022-10-25T12:49:57.822Z,3.60
2022-10-25T12:51:33.429Z,3.53
2022-10-25T12:52:42.385Z,3.42
2022-10-25T12:53:45.002Z,4.72
2022-10-25T12:55:25.028Z,3.42
2022-10-25T12:57:08.787Z,4.30
2022-10-25T12:58:14.002Z,3.45
2022-10-25T12:59:29.216Z,4.25
2022-10-25T13:00:46.536Z,3.95
2022-10-25T13:02:08.498Z,3.95
2022-10-25T13:03:22.850Z,3.08
2022-10-25T13:05:02.889Z,3.97
2022-10-25T13:06:28.892Z,3.30
2022-10-25T13:07:34.218Z,3.80
2022-10-25T13:08:39.154Z,3.40
2022-10-25T13:09:42.067Z,3.55
2022-10-25T13:10:47.831Z,3.95
2022-10-25T13:12:01.282Z,3.67
2022-10-25T13:13:07.330Z,4.30
2022-10-25T13:14:24.023Z,3.58
2022-10-25T13:15:26.732Z,3.63
2022-10-25T13:16:33.306Z,4.03
2022-10-25T13:17:41.446Z,4.60
2022-10-25T13:18:46.402Z,3.38
2022-10-25T13:19:55.033Z,4.07
2022-10-25T13:21:02.753Z,3.92
2022-10-25T13:22:09.773Z,4.15
2022-10-25T13:23:45.897Z,3.80
2022-10-25T13:24:48.343Z,4.43
2022-10-25T13:25:51.068Z,4.22
2022-10-25T13:27:12.026Z,4.03
2022-10-25T13:28:14.493Z,4.30
2022-10-25T13:29:47.494Z,4.32
2022-10-25T13:30:50.613Z,3.55
2022-10-25T13:32:10.206Z,3.80
2022-10-25T13:33:27.362Z,4.20
2022-10-25T13:34:32.028Z,3.58
2022-10-25T13:35:37.564Z,3.67
2022-10-25T13:37:06.835Z,4.03
2022-10-25T13:38:19.724Z,4.10
2022-10-25T13:39:31.366Z,4.25
2022-10-25T13:40:34.321Z,4.15
2022-10-25T13:41:45.447Z,3.70
2022-10-25T13:42:50.071Z,3.88
2022-10-25T13:44:02.312Z,3.97
2022-10-25T13:45:06.953Z,4.03
2022-10-25T13:46:11.374Z,3.88
2022-10-25T13:47:32.082Z,3.47
2022-10-25T13:48:35.735Z,3.72
2022-10-25T13:49:43.125Z,3.95
2022-10-25T13:50:53.804Z,3.90
2022-10-25T13:53:17.284Z,3.90
2022-10-25T13:54:19.868Z,3.95
2022-10-25T13:55:23.830Z,3.42
2022-10-25T13:56:26.289Z,3.75
2022-10-25T13:57:52.701Z,3.65
2022-10-25T13:58:56.451Z,3.47
2022-10-25T14:00:01.264Z,3.28
2022-10-25T14:01:16.361Z,3.45
2022-10-25T14:02:20.826Z,3.35
2022-10-25T14:03:25.193Z,2.95
2022-10-25T14:04:36.458Z,3.58
2022-10-25T14:05:54.195Z,2.95
2022-10-25T14:07:35.152Z,3.03
2022-10-25T14:09:46.448Z,2.97
2022-10-25T14:10:49.887Z,2.92
2022-10-25T14:12:01.547Z,2.92
2022-10-25T14:13:08.368Z,2.90
2022-10-25T14:14:40.893Z,2.97
2022-10-25T14:15:52.701Z,3.47
2022-10-25T14:17:21.963Z,3.78
2022-10-25T14:18:25.225Z,3.15
2022-10-25T14:20:01.480Z,2.88
2022-10-25T14:21:05.680Z,2.60
2022-10-25T14:22:18.770Z,2.55
2022-10-25T14:23:27.893Z,2.90
2022-10-25T14:24:31.067Z,3.78
2022-10-25T14:25:41.935Z,3.20
2022-10-25T14:28:14.967Z,3.10
2022-10-25T14:29:23.025Z,3.38
2022-10-25T14:30:28.735Z,3.22
2022-10-25T14:31:31.279Z,3.20
2022-10-25T14:32:33.822Z,4.50
2022-10-25T14:33:42.350Z,5.25
2022-10-25T14:34:50.436Z,5.10
2022-10-25T14:35:56.602Z,5.20
2022-10-25T14:36:59.455Z,6.38
2022-10-25T14:38:03.485Z,6.03
2022-10-25T14:39:24.248Z,5.43
2022-10-25T14:41:34.486Z,5.32
2022-10-25T14:42:37.004Z,8.32
2022-10-25T14:43:41.631Z,6.40
2022-10-25T14:44:45.632Z,4.85
2022-10-25T14:45:58.085Z,5.05
2022-10-25T14:47:00.753Z,3.88
2022-10-25T14:48:10.464Z,6.55
2022-10-25T14:49:13.040Z,6.38
2022-10-25T14:50:23.409Z,6.35
2022-10-25T14:51:30.538Z,4.80
2022-10-25T14:52:33.265Z,5.40
2022-10-25T14:53:36.386Z,4.00
2022-10-25T14:54:39.343Z,4.22
2022-10-25T14:55:54.045Z,4.38
2022-10-25T14:57:02.675Z,4.95
2022-10-25T14:58:05.651Z,3.40
2022-10-25T14:59:19.413Z,3.10
2022-10-25T15:00:23.281Z,3.22
2022-10-25T15:01:26.578Z,3.22
2022-10-25T15:02:35.462Z,3.67
2022-10-25T15:03:42.581Z,3.83
2022-10-25T15:04:48.656Z,3.83
2022-10-25T15:05:52.361Z,3.45